createdAt,value
2023-03-20T00:02:07.199Z,95656.84
2023-03-20T00:04:58.861Z,95651.66
2023-03-20T00:07:47.120Z,95639.13
2023-03-20T00:10:18.328Z,95626.53
2023-03-20T00:12:48.564Z,95631.13
2023-03-20T00:15:27.579Z,95638.94
2023-03-20T00:17:55.769Z,95642.97
2023-03-20T00:20:24.893Z,95598.97
2023-03-20T00:22:54.569Z,95645.16
2023-03-20T00:25:25.851Z,95646.94
2023-03-20T00:27:54.014Z,95654.56
2023-03-20T00:30:26.201Z,95656.03
2023-03-20T00:32:54.361Z,95648.94
2023-03-20T00:35:25.752Z,95644.81
2023-03-20T00:37:54.591Z,95607.59
2023-03-20T00:40:28.191Z,95627.69
2023-03-20T00:43:00.684Z,95638.97
2023-03-20T00:45:30.030Z,95635.47
2023-03-20T00:47:58.646Z,95631.44
2023-03-20T00:50:29.809Z,95633.03
2023-03-20T00:52:58.644Z,95580.38
2023-03-20T00:55:30.438Z,95635.41
2023-03-20T00:58:01.723Z,95636.84
2023-03-20T01:00:47.449Z,95626.84
2023-03-20T01:03:18.897Z,95625.22
2023-03-20T01:05:47.851Z,95628.91
2023-03-20T01:08:17.511Z,95583.19
2023-03-20T01:10:48.121Z,95621.19
2023-03-20T01:13:21.971Z,95619.41
2023-03-20T01:15:51.517Z,95612.88
2023-03-20T01:18:21.045Z,95609.84
2023-03-20T01:20:49.381Z,95603.72
2023-03-20T01:23:17.462Z,95609.56
2023-03-20T01:25:47.051Z,95614.47
2023-03-20T01:28:18.349Z,95614.31
2023-03-20T01:30:47.248Z,95620.34
2023-03-20T01:33:17.341Z,95612.59
2023-03-20T01:35:45.943Z,95440.00
2023-03-20T01:38:16.346Z,95618.16
2023-03-20T01:40:52.155Z,95548.38
2023-03-20T01:43:22.037Z,95619.53
2023-03-20T01:45:58.778Z,95624.31
2023-03-20T01:48:36.741Z,95620.41
2023-03-20T01:51:05.231Z,95623.16
2023-03-20T01:53:33.085Z,95632.78
2023-03-20T01:56:02.572Z,95629.56
2023-03-20T01:58:37.439Z,95627.44
2023-03-20T02:01:06.969Z,95627.53
2023-03-20T02:03:35.218Z,95630.19
2023-03-20T02:06:03.127Z,95594.03
2023-03-20T02:08:32.945Z,95556.03
2023-03-20T02:11:03.270Z,95623.88
2023-03-20T02:13:32.735Z,95596.06
2023-03-20T02:16:04.778Z,95609.16
2023-03-20T02:18:33.380Z,95624.41
2023-03-20T02:21:38.721Z,95617.06
2023-03-20T02:24:37.316Z,95585.44
2023-03-20T02:27:14.759Z,95619.84
2023-03-20T02:30:19.225Z,95624.28
2023-03-20T02:33:24.428Z,95623.50
2023-03-20T02:36:27.742Z,95648.13
2023-03-20T02:39:19.643Z,95612.34
2023-03-20T02:41:54.425Z,95617.06
2023-03-20T02:44:32.515Z,95599.69
2023-03-20T02:47:04.672Z,95607.41
2023-03-20T02:49:56.571Z,95619.75
2023-03-20T02:52:33.981Z,95601.56
2023-03-20T02:55:16.145Z,95593.28
2023-03-20T02:57:52.660Z,95604.69
2023-03-20T03:00:29.026Z,95604.94
2023-03-20T03:03:06.953Z,95603.84
2023-03-20T03:05:39.639Z,95595.38
2023-03-20T03:08:10.852Z,95603.84
2023-03-20T03:10:45.804Z,95604.88
2023-03-20T03:13:17.139Z,95603.97
2023-03-20T03:15:48.055Z,95600.72
2023-03-20T03:18:20.052Z,95605.78
2023-03-20T03:20:52.226Z,95580.63
2023-03-20T03:23:26.546Z,95597.03
2023-03-20T03:25:57.606Z,95606.69
2023-03-20T03:28:31.021Z,95610.31
2023-03-20T03:31:00.244Z,95607.41
2023-03-20T03:33:31.233Z,95604.53
2023-03-20T03:36:10.375Z,95561.75
2023-03-20T03:38:44.658Z,95611.00
2023-03-20T03:41:23.450Z,95624.38
2023-03-20T03:43:58.853Z,95608.63
2023-03-20T03:46:35.819Z,95603.28
2023-03-20T03:49:05.555Z,95611.13
2023-03-20T03:51:36.253Z,95582.66
2023-03-20T03:54:11.977Z,95605.34
2023-03-20T03:56:44.790Z,95604.50
2023-03-20T03:59:18.834Z,95591.53
2023-03-20T04:01:47.795Z,95606.13
2023-03-20T04:04:17.036Z,95606.75
2023-03-20T04:06:44.954Z,95598.22
2023-03-20T04:09:12.871Z,95595.56
2023-03-20T04:11:42.158Z,95598.44
2023-03-20T04:14:10.026Z,95593.41
2023-03-20T04:16:37.939Z,95591.63
2023-03-20T04:19:05.913Z,95579.03
2023-03-20T04:21:33.773Z,95574.56
2023-03-20T04:24:01.621Z,95590.28
2023-03-20T04:26:29.477Z,95597.59
2023-03-20T04:28:58.754Z,95572.38
2023-03-20T04:31:26.780Z,95586.94
2023-03-20T04:33:54.744Z,95596.78
2023-03-20T04:36:22.642Z,95535.94
2023-03-20T04:38:50.786Z,95592.78
2023-03-20T04:41:21.154Z,95592.31
2023-03-20T04:43:51.358Z,95596.53
2023-03-20T04:46:20.605Z,95586.97
2023-03-20T04:48:48.501Z,95607.91
2023-03-20T04:51:16.338Z,95614.84
2023-03-20T04:53:44.282Z,95613.41
2023-03-20T04:56:17.125Z,95613.50
2023-03-20T04:58:51.001Z,95624.81
2023-03-20T05:01:23.389Z,95616.66
2023-03-20T05:03:52.142Z,95620.69
2023-03-20T05:06:23.276Z,95570.63
2023-03-20T05:08:54.593Z,95611.56
2023-03-20T05:11:24.952Z,95622.00
2023-03-20T05:13:53.102Z,95630.72
2023-03-20T05:16:22.680Z,95629.06
2023-03-20T05:18:50.595Z,95637.19
2023-03-20T05:21:18.446Z,95636.91
2023-03-20T05:23:46.251Z,95631.69
2023-03-20T05:26:14.073Z,95636.22
2023-03-20T05:28:41.947Z,95635.34
2023-03-20T05:31:10.232Z,95633.16
2023-03-20T05:33:40.059Z,95628.63
2023-03-20T05:36:09.517Z,95641.16
2023-03-20T05:38:37.443Z,95644.88
2023-03-20T05:41:05.791Z,95652.59
2023-03-20T05:43:33.624Z,95634.44
2023-03-20T05:46:02.302Z,95642.97
2023-03-20T05:48:30.681Z,95644.75
2023-03-20T05:50:59.953Z,95645.09
2023-03-20T05:53:27.786Z,95641.75
2023-03-20T05:55:59.859Z,95652.47
2023-03-20T05:58:29.947Z,95636.94
2023-03-20T06:01:13.086Z,95657.84
2023-03-20T06:03:58.816Z,95653.56
2023-03-20T06:07:28.545Z,95638.66
2023-03-20T06:13:02.761Z,95636.69
2023-03-20T06:15:32.837Z,95648.31
2023-03-20T06:18:09.210Z,95644.44
2023-03-20T06:20:39.730Z,95653.88
2023-03-20T06:23:10.634Z,95654.25
2023-03-20T06:25:41.036Z,95644.03
2023-03-20T06:28:08.923Z,95643.00
2023-03-20T06:30:38.008Z,95627.66
2023-03-20T06:33:20.547Z,95644.00
2023-03-20T06:36:00.264Z,95642.28
2023-03-20T06:41:35.790Z,95647.38
2023-03-20T06:44:04.953Z,95643.47
2023-03-20T06:46:32.954Z,95647.22
2023-03-20T06:49:04.028Z,95641.81
2023-03-20T06:51:32.777Z,95641.97
2023-03-20T06:54:00.996Z,95572.44
2023-03-20T06:56:28.851Z,95635.78
2023-03-20T06:58:58.214Z,95635.78
2023-03-20T07:01:26.222Z,95607.22
2023-03-20T07:03:55.056Z,95631.41
2023-03-20T07:06:23.350Z,95630.38
2023-03-20T07:08:51.596Z,95597.94
2023-03-20T07:11:19.793Z,95635.41
2023-03-20T07:13:49.830Z,95621.72
2023-03-20T07:16:19.375Z,95573.78
2023-03-20T07:18:47.413Z,95631.16
2023-03-20T07:21:19.922Z,95568.44
2023-03-20T07:23:47.934Z,95628.53
2023-03-20T07:26:16.163Z,95620.16
2023-03-20T07:28:44.027Z,95624.94
2023-03-20T07:31:23.042Z,95628.75
2023-03-20T07:33:51.829Z,95562.00
2023-03-20T07:36:19.770Z,95623.38
2023-03-20T07:38:47.631Z,95632.22
2023-03-20T07:41:15.772Z,95628.00
2023-03-20T07:43:44.865Z,95628.66
2023-03-20T07:46:12.930Z,95626.31
2023-03-20T07:48:42.243Z,95614.94
2023-03-20T07:51:10.093Z,95612.91
2023-03-20T07:53:38.475Z,95625.81
2023-03-20T07:56:10.048Z,95622.75
2023-03-20T07:58:38.409Z,95623.53
2023-03-20T08:01:07.092Z,95592.59
2023-03-20T08:03:35.132Z,95619.09
2023-03-20T08:06:06.450Z,95620.78
2023-03-20T08:08:34.856Z,95620.25
2023-03-20T08:11:03.790Z,95624.88
2023-03-20T08:13:32.402Z,95614.06
2023-03-20T08:16:00.305Z,95607.91
2023-03-20T08:18:28.220Z,95591.06
2023-03-20T08:20:56.218Z,95610.72
2023-03-20T08:23:25.849Z,95584.91
2023-03-20T08:25:55.268Z,95615.97
2023-03-20T08:28:36.368Z,95614.50
2023-03-20T08:31:11.985Z,95571.09
2023-03-20T08:33:39.908Z,95615.53
2023-03-20T08:36:09.002Z,95615.63
2023-03-20T08:38:39.498Z,95622.19
2023-03-20T08:41:08.391Z,95615.38
2023-03-20T08:43:36.484Z,95602.44
2023-03-20T08:46:05.030Z,95613.84
2023-03-20T08:48:33.404Z,95613.59
2023-03-20T08:51:01.988Z,95572.13
2023-03-20T08:53:29.930Z,95603.63
2023-03-20T08:55:59.284Z,95606.88
2023-03-20T08:58:27.355Z,95611.91
2023-03-20T09:00:55.440Z,95588.28
2023-03-20T09:03:23.975Z,95594.69
2023-03-20T09:05:52.795Z,95603.41
2023-03-20T09:08:21.126Z,95590.44
2023-03-20T09:10:52.119Z,95588.63
2023-03-20T09:13:27.616Z,95587.91
2023-03-20T09:15:56.930Z,95592.06
2023-03-20T09:18:25.449Z,95583.19
2023-03-20T09:20:53.802Z,95603.88
2023-03-20T09:23:21.976Z,95581.28
2023-03-20T09:25:49.918Z,95565.66
2023-03-20T09:28:17.790Z,95562.09
2023-03-20T09:30:47.079Z,95572.97
2023-03-20T09:33:15.612Z,95536.69
2023-03-20T09:35:44.116Z,95556.56
2023-03-20T09:38:12.601Z,95560.75
2023-03-20T09:40:52.360Z,95551.66
2023-03-20T09:43:29.986Z,95546.72
2023-03-20T09:46:11.928Z,95550.38
2023-03-20T09:48:46.233Z,95537.34
2023-03-20T09:51:22.784Z,95534.69
2023-03-20T09:53:59.925Z,95530.41
2023-03-20T09:56:31.858Z,95516.38
2023-03-20T09:59:02.495Z,95498.69
2023-03-20T10:01:39.678Z,95504.25
2023-03-20T10:04:11.066Z,95492.41
2023-03-20T10:06:39.807Z,95494.94
2023-03-20T10:09:17.679Z,95496.16
2023-03-20T10:12:16.519Z,95486.47
2023-03-20T10:14:54.622Z,95491.19
2023-03-20T10:17:34.139Z,95482.50
2023-03-20T10:20:13.593Z,95472.63
2023-03-20T10:22:46.414Z,95459.44
2023-03-20T10:25:24.977Z,95442.13
2023-03-20T10:27:59.148Z,95475.88
2023-03-20T10:30:35.198Z,95467.28
2023-03-20T10:33:22.211Z,95453.13
2023-03-20T10:36:02.975Z,95321.09
2023-03-20T10:38:41.667Z,95461.78
2023-03-20T10:41:15.528Z,95453.19
2023-03-20T10:43:45.705Z,95446.94
2023-03-20T10:46:17.787Z,95449.22
2023-03-20T10:48:50.617Z,95435.78
2023-03-20T10:51:21.058Z,95434.19
2023-03-20T10:53:53.255Z,95395.97
2023-03-20T10:56:29.092Z,95385.03
2023-03-20T10:59:03.516Z,95403.41
2023-03-20T11:01:33.315Z,95415.84
2023-03-20T11:04:03.766Z,95378.53
2023-03-20T11:06:34.931Z,95418.09
2023-03-20T11:09:13.632Z,95420.13
2023-03-20T11:11:44.610Z,95411.25
2023-03-20T11:14:24.976Z,95335.25
2023-03-20T11:17:08.165Z,95403.03
2023-03-20T11:19:49.687Z,95395.44
2023-03-20T11:22:41.367Z,95266.03
2023-03-20T11:25:44.163Z,95385.44
2023-03-20T11:28:45.861Z,95397.59
2023-03-20T11:31:27.410Z,95377.34
2023-03-20T11:34:24.154Z,95370.75
2023-03-20T11:37:10.248Z,95358.91
2023-03-20T11:40:12.703Z,95338.22
2023-03-20T11:43:03.218Z,95232.91
2023-03-20T11:45:45.483Z,95238.03
2023-03-20T11:48:27.928Z,95304.81
2023-03-20T11:51:03.816Z,95327.16
2023-03-20T11:53:36.224Z,95321.03
2023-03-20T11:56:17.990Z,95321.88
2023-03-20T11:59:04.117Z,95274.41
2023-03-20T12:01:52.276Z,95307.78
2023-03-20T12:04:38.375Z,95068.03
2023-03-20T12:07:24.595Z,95211.59
2023-03-20T12:10:07.013Z,95010.50
2023-03-20T12:12:42.136Z,95295.53
2023-03-20T12:15:19.672Z,95268.56
2023-03-20T12:17:56.861Z,95277.56
2023-03-20T12:20:34.057Z,95283.91
2023-03-20T12:23:12.127Z,95277.31
2023-03-20T12:25:48.277Z,95278.56
2023-03-20T12:28:25.304Z,95264.31
2023-03-20T12:31:05.428Z,95240.91
2023-03-20T12:33:42.130Z,95280.97
2023-03-20T12:36:16.576Z,95267.25
2023-03-20T12:38:46.227Z,95269.16
2023-03-20T12:41:17.581Z,95200.69
2023-03-20T12:44:05.630Z,95256.00
2023-03-20T12:46:43.067Z,95217.56
2023-03-20T12:49:21.099Z,95233.06
2023-03-20T12:52:00.584Z,95232.94
2023-03-20T12:54:43.024Z,95241.97
2023-03-20T12:57:22.797Z,95243.88
2023-03-20T13:00:14.492Z,95248.22
2023-03-20T13:02:51.085Z,95228.69
2023-03-20T13:05:31.171Z,95143.41
2023-03-20T13:08:19.423Z,95224.63
2023-03-20T13:10:57.253Z,95223.88
2023-03-20T13:13:33.400Z,95200.91
2023-03-20T13:16:13.087Z,95209.13
2023-03-20T13:18:55.519Z,95171.25
2023-03-20T13:21:30.191Z,95207.94
2023-03-20T13:24:06.887Z,95203.16
2023-03-20T13:26:39.994Z,95202.84
2023-03-20T13:29:17.062Z,95186.91
2023-03-20T13:31:54.291Z,95193.31
2023-03-20T13:34:32.098Z,95197.34
2023-03-20T13:37:26.379Z,95193.84
2023-03-20T13:40:05.737Z,95168.22
2023-03-20T13:42:39.757Z,95186.47
2023-03-20T13:45:31.380Z,95165.75
2023-03-20T13:48:04.514Z,95172.69
2023-03-20T13:50:44.048Z,95168.69
2023-03-20T13:53:25.828Z,95173.63
2023-03-20T13:55:59.286Z,95164.97
2023-03-20T13:58:56.362Z,95162.53
2023-03-20T14:01:36.308Z,95166.50
2023-03-20T14:04:05.994Z,95146.34
2023-03-20T14:06:54.453Z,95157.91
2023-03-20T14:09:31.371Z,95141.63
2023-03-20T14:12:03.809Z,95156.28
2023-03-20T14:14:33.942Z,95157.06
2023-03-20T14:17:09.006Z,95147.59
2023-03-20T14:19:39.136Z,95147.59
2023-03-20T14:22:08.091Z,95136.50
2023-03-20T14:24:38.237Z,95118.94
2023-03-20T14:27:06.770Z,95132.59
2023-03-20T14:29:39.619Z,95083.94
2023-03-20T14:32:35.650Z,95141.13
2023-03-20T14:35:24.112Z,95123.56
2023-03-20T14:38:16.905Z,95120.50
2023-03-20T14:40:54.755Z,95118.16
2023-03-20T14:43:39.901Z,95126.44
2023-03-20T14:46:16.962Z,95121.31
2023-03-20T14:48:49.677Z,95121.72
2023-03-20T14:51:29.784Z,95121.28
2023-03-20T14:53:58.760Z,95119.75
2023-03-20T14:56:30.304Z,95126.84
2023-03-20T14:59:02.509Z,95116.03
2023-03-20T15:01:48.978Z,95109.47
2023-03-20T15:04:30.107Z,95092.84
2023-03-20T15:07:01.804Z,95121.75
2023-03-20T15:09:33.082Z,95115.94
2023-03-20T15:12:04.484Z,95104.66
2023-03-20T15:14:41.844Z,95118.69
2023-03-20T15:17:18.684Z,95112.84
2023-03-20T15:19:50.498Z,95117.59
2023-03-20T15:22:20.526Z,95116.97
2023-03-20T15:24:56.108Z,95115.31
2023-03-20T15:27:29.473Z,95118.44
2023-03-20T15:29:58.600Z,95066.88
2023-03-20T15:32:26.798Z,95095.75
2023-03-20T15:34:56.744Z,95102.84
2023-03-20T15:37:26.450Z,95102.41
2023-03-20T15:39:56.967Z,95111.31
2023-03-20T15:42:27.771Z,95114.06
2023-03-20T15:44:56.859Z,95053.25
2023-03-20T15:47:26.743Z,95054.50
2023-03-20T15:49:58.207Z,95115.38
2023-03-20T15:52:31.807Z,95107.94
2023-03-20T15:55:03.652Z,95112.69
2023-03-20T15:57:35.812Z,95092.91
2023-03-20T16:00:06.333Z,95097.69
2023-03-20T16:02:36.030Z,95108.69
2023-03-20T16:05:10.528Z,95111.88
2023-03-20T16:07:38.479Z,95119.31
2023-03-20T16:10:17.776Z,95128.31
2023-03-20T16:12:49.549Z,95129.13
2023-03-20T16:15:18.632Z,95127.22
2023-03-20T16:17:47.811Z,95127.66
2023-03-20T16:20:20.048Z,95126.09
2023-03-20T16:22:52.594Z,95139.41
2023-03-20T16:25:22.324Z,95132.00
2023-03-20T16:27:52.889Z,95126.09
2023-03-20T16:30:25.318Z,95126.09
2023-03-20T16:32:59.766Z,95141.31
2023-03-20T16:35:38.099Z,95133.47
2023-03-20T16:38:17.378Z,95149.50
2023-03-20T16:40:45.466Z,95152.59
2023-03-20T16:43:17.132Z,95148.28
2023-03-20T16:45:46.672Z,95144.38
2023-03-20T16:48:36.126Z,95143.97
2023-03-20T16:51:17.581Z,95141.63
2023-03-20T16:53:47.986Z,95142.41
2023-03-20T16:56:18.763Z,95143.59
2023-03-20T16:58:47.203Z,95143.19
2023-03-20T17:01:21.696Z,95143.16
2023-03-20T17:03:53.675Z,95126.16
2023-03-20T17:06:45.510Z,95146.41
2023-03-20T17:09:26.848Z,95142.06
2023-03-20T17:12:02.516Z,95145.94
2023-03-20T17:14:30.684Z,95131.28
2023-03-20T17:17:00.386Z,95137.84
2023-03-20T17:19:28.362Z,95144.81
2023-03-20T17:21:59.835Z,95158.13
2023-03-20T17:24:27.822Z,95129.16
2023-03-20T17:26:57.765Z,95153.53
2023-03-20T17:29:25.739Z,95146.72
2023-03-20T17:31:53.669Z,95152.66
2023-03-20T17:34:21.577Z,95151.53
2023-03-20T17:37:03.344Z,95155.38
2023-03-20T17:39:32.857Z,95133.31
2023-03-20T17:42:00.759Z,95156.69
2023-03-20T17:44:28.899Z,95163.19
2023-03-20T17:46:59.092Z,95168.19
2023-03-20T17:49:28.312Z,95168.59
2023-03-20T17:51:56.605Z,95167.38
2023-03-20T17:54:24.561Z,95166.91
2023-03-20T17:56:53.854Z,95184.34
2023-03-20T17:59:21.815Z,95167.09
2023-03-20T18:01:49.803Z,95172.31
2023-03-20T18:04:19.842Z,95178.34
2023-03-20T18:06:49.116Z,95141.59
2023-03-20T18:09:17.460Z,95184.16
2023-03-20T18:11:45.423Z,95189.69
2023-03-20T18:14:18.022Z,95185.47
2023-03-20T18:16:46.555Z,95172.34
2023-03-20T18:19:25.785Z,95181.66
2023-03-20T18:21:53.859Z,95180.09
2023-03-20T18:24:22.129Z,95181.53
2023-03-20T18:26:53.050Z,95168.88
2023-03-20T18:29:22.412Z,95136.56
2023-03-20T18:31:50.583Z,95149.91
2023-03-20T18:34:21.269Z,95192.16
2023-03-20T18:36:51.640Z,95139.09
2023-03-20T18:39:20.761Z,95190.53
2023-03-20T18:41:48.855Z,95197.88
2023-03-20T18:44:17.673Z,95198.09
2023-03-20T18:46:47.211Z,95196.63
2023-03-20T18:49:17.256Z,95210.28
2023-03-20T18:51:45.883Z,95008.84
2023-03-20T18:54:13.956Z,95200.91
2023-03-20T18:56:43.068Z,95034.53
2023-03-20T18:59:13.810Z,95213.28
2023-03-20T19:01:42.559Z,95230.78
2023-03-20T19:04:12.055Z,95222.59
2023-03-20T19:06:40.102Z,95231.41
2023-03-20T19:09:09.984Z,95226.44
2023-03-20T19:11:37.921Z,95225.38
2023-03-20T19:14:05.785Z,95225.72
2023-03-20T19:16:37.868Z,95222.84
2023-03-20T19:19:08.827Z,95147.69
2023-03-20T19:21:38.062Z,95222.44
2023-03-20T19:24:07.703Z,95220.56
2023-03-20T19:26:37.801Z,95163.13
2023-03-20T19:29:09.596Z,95220.94
2023-03-20T19:31:37.739Z,95229.56
2023-03-20T19:34:06.795Z,95225.22
2023-03-20T19:36:38.337Z,95235.44
2023-03-20T19:39:08.623Z,95184.06
2023-03-20T19:41:36.641Z,95224.94
2023-03-20T19:44:06.593Z,95002.00
2023-03-20T19:46:42.773Z,95224.59
2023-03-20T19:49:18.625Z,95246.25
2023-03-20T19:51:51.429Z,95250.88
2023-03-20T19:54:20.889Z,95245.03
2023-03-20T19:56:49.358Z,95208.28
2023-03-20T19:59:17.412Z,95255.00
2023-03-20T20:01:46.849Z,95249.88
2023-03-20T20:04:16.238Z,95248.28
2023-03-20T20:06:47.193Z,95244.00
2023-03-20T20:09:24.026Z,95171.63
2023-03-20T20:11:52.457Z,95253.53
2023-03-20T20:14:26.431Z,95223.25
2023-03-20T20:17:07.992Z,95120.34
2023-03-20T20:19:49.501Z,95245.19
2023-03-20T20:22:26.031Z,95243.63
2023-03-20T20:24:56.334Z,95245.19
2023-03-20T20:27:24.315Z,95238.91
2023-03-20T20:29:57.488Z,95197.59
2023-03-20T20:32:36.483Z,95040.91
2023-03-20T20:35:41.837Z,95231.81
2023-03-20T20:38:36.722Z,95162.78
2023-03-20T20:40:46.729Z,95169.78
2023-03-20T20:43:39.075Z,95243.44
2023-03-20T20:46:03.121Z,95242.94
2023-03-20T20:48:33.359Z,95202.72
2023-03-20T20:51:04.473Z,95236.88
2023-03-20T20:53:32.529Z,95233.50
2023-03-20T20:56:01.854Z,95227.03
2023-03-20T20:58:29.728Z,95236.63
2023-03-20T21:00:58.488Z,95245.63
2023-03-20T21:03:26.515Z,95245.75
2023-03-20T21:05:54.394Z,95240.31
2023-03-20T21:08:22.312Z,95247.72
2023-03-20T21:10:50.945Z,95247.41
2023-03-20T21:13:20.295Z,95245.91
2023-03-20T21:15:48.481Z,95252.63
2023-03-20T21:18:16.312Z,95250.81
2023-03-20T21:20:44.185Z,95253.97
2023-03-20T21:23:12.265Z,95246.25
2023-03-20T21:25:44.669Z,95218.56
2023-03-20T21:28:14.569Z,95228.41
2023-03-20T21:31:04.218Z,95202.56
2023-03-20T21:33:33.300Z,95219.06
2023-03-20T21:36:01.326Z,95204.91
2023-03-20T21:39:02.009Z,95243.09
2023-03-20T21:41:17.555Z,95241.19
2023-03-20T21:43:47.322Z,95242.03
2023-03-20T21:49:55.523Z,95221.34
2023-03-20T21:55:13.277Z,95225.03
2023-03-20T22:03:18.362Z,95205.06
2023-03-20T22:15:11.972Z,95221.84
2023-03-20T22:23:43.293Z,95232.31
2023-03-20T22:26:23.906Z,95224.09
2023-03-20T22:29:21.192Z,95220.25
2023-03-20T22:37:40.805Z,95222.59
2023-03-20T22:40:29.186Z,95219.47
2023-03-20T22:42:54.034Z,94909.41
2023-03-20T22:47:49.124Z,95213.25
2023-03-20T22:50:17.537Z,95220.16
2023-03-20T22:52:49.400Z,95162.31
2023-03-20T22:55:18.542Z,95209.13
2023-03-20T22:58:03.966Z,95208.63
2023-03-20T23:00:34.840Z,95207.28
2023-03-20T23:03:17.255Z,95197.88
2023-03-20T23:05:51.557Z,95193.75
2023-03-20T23:08:21.300Z,95129.16
2023-03-20T23:10:51.258Z,95069.19
2023-03-20T23:13:22.382Z,95198.34
2023-03-20T23:15:51.618Z,95181.97
2023-03-20T23:18:19.506Z,95189.81
2023-03-20T23:20:47.423Z,95185.53
2023-03-20T23:23:17.782Z,95195.44
2023-03-20T23:25:47.256Z,95163.94
2023-03-20T23:28:15.237Z,95193.84
2023-03-20T23:30:49.881Z,95190.47
2023-03-20T23:33:24.588Z,95188.63
2023-03-20T23:36:01.310Z,95182.88
2023-03-20T23:38:37.062Z,95187.16
2023-03-20T23:41:06.998Z,95179.03
2023-03-20T23:43:34.886Z,95170.06
2023-03-20T23:46:02.853Z,95173.09
2023-03-20T23:48:30.833Z,95164.53
2023-03-20T23:50:58.963Z,95170.31
2023-03-20T23:53:27.224Z,95169.06
2023-03-20T23:55:57.478Z,95166.69
2023-03-20T23:58:28.491Z,95152.97
